createdAt,value
2023-02-28T00:01:14.673Z,-0.60
2023-02-28T00:03:42.642Z,-0.50
2023-02-28T00:06:12.518Z,-0.50
2023-02-28T00:08:40.919Z,-0.50
2023-02-28T00:11:11.006Z,-0.40
2023-02-28T00:13:41.568Z,-0.30
2023-02-28T00:16:11.590Z,-0.30
2023-02-28T00:18:40.030Z,-0.30
2023-02-28T00:21:08.926Z,-0.30
2023-02-28T00:23:38.383Z,-0.20
2023-02-28T00:26:06.772Z,-0.10
2023-02-28T00:28:34.888Z,-0.10
2023-02-28T00:31:03.030Z,-0.20
2023-02-28T00:33:31.586Z,-0.10
2023-02-28T00:36:07.168Z,-0.20
2023-02-28T00:38:35.203Z,-0.10
2023-02-28T00:41:05.941Z,0.00
2023-02-28T00:43:35.492Z,0.10
2023-02-28T00:46:03.735Z,0.20
2023-02-28T00:48:31.869Z,0.20
2023-02-28T00:50:59.826Z,0.20
2023-02-28T00:53:27.870Z,0.30
2023-02-28T00:55:56.035Z,0.20
2023-02-28T00:58:25.397Z,0.30
2023-02-28T01:00:54.764Z,0.30
2023-02-28T01:03:23.840Z,0.20
2023-02-28T01:05:53.946Z,0.30
2023-02-28T01:08:21.987Z,0.40
2023-02-28T01:10:49.969Z,0.40
2023-02-28T01:13:18.256Z,0.30
2023-02-28T01:15:51.846Z,0.40
2023-02-28T01:18:20.138Z,0.40
2023-02-28T01:20:48.190Z,0.40
2023-02-28T01:23:16.123Z,0.40
2023-02-28T01:25:44.143Z,0.40
2023-02-28T01:28:12.168Z,0.40
2023-02-28T01:30:40.190Z,0.30
2023-02-28T01:33:09.514Z,0.30
2023-02-28T01:35:38.266Z,0.20
2023-02-28T01:38:20.918Z,0.10
2023-02-28T01:40:50.025Z,0.10
2023-02-28T01:43:24.607Z,0.10
2023-02-28T01:45:53.159Z,0.20
2023-02-28T01:48:27.151Z,0.10
2023-02-28T01:50:56.754Z,0.20
2023-02-28T01:53:29.686Z,0.30
2023-02-28T01:55:58.169Z,0.30
2023-02-28T01:58:26.672Z,0.30
2023-02-28T02:00:54.645Z,0.40
2023-02-28T02:03:23.946Z,0.40
2023-02-28T02:05:52.086Z,0.50
2023-02-28T02:08:23.700Z,0.50
2023-02-28T02:10:56.065Z,0.50
2023-02-28T02:13:54.266Z,0.60
2023-02-28T02:16:36.577Z,0.50
2023-02-28T02:19:28.831Z,0.50
2023-02-28T02:22:22.033Z,0.50
2023-02-28T02:25:07.671Z,0.50
2023-02-28T02:28:07.284Z,0.50
2023-02-28T02:30:47.553Z,0.40
2023-02-28T02:33:45.549Z,0.40
2023-02-28T02:36:20.932Z,0.40
2023-02-28T02:38:54.238Z,0.30
2023-02-28T02:41:29.812Z,0.30
2023-02-28T02:44:04.770Z,0.30
2023-02-28T02:46:35.941Z,0.30
2023-02-28T02:49:07.844Z,0.30
2023-02-28T02:51:39.040Z,0.20
2023-02-28T02:54:13.562Z,0.20
2023-02-28T02:56:44.076Z,0.20
2023-02-28T02:59:15.593Z,0.10
2023-02-28T03:01:44.343Z,0.10
2023-02-28T03:04:16.476Z,0.20
2023-02-28T03:06:45.840Z,0.20
2023-02-28T03:09:13.894Z,0.20
2023-02-28T03:11:43.920Z,0.20
2023-02-28T03:14:32.788Z,0.20
2023-02-28T03:17:21.980Z,0.30
2023-02-28T03:20:08.080Z,0.30
2023-02-28T03:22:54.336Z,0.30
2023-02-28T03:25:31.598Z,0.30
2023-02-28T03:28:06.750Z,0.30
2023-02-28T03:30:42.496Z,0.30
2023-02-28T03:33:14.686Z,0.30
2023-02-28T03:35:46.009Z,0.30
2023-02-28T03:38:19.521Z,0.30
2023-02-28T03:40:51.100Z,0.30
2023-02-28T03:43:25.923Z,0.30
2023-02-28T03:45:57.006Z,0.30
2023-02-28T03:48:29.802Z,0.30
2023-02-28T03:51:02.055Z,0.30
2023-02-28T03:53:35.306Z,0.30
2023-02-28T03:56:08.299Z,0.30
2023-02-28T03:58:43.872Z,0.30
2023-02-28T04:01:17.359Z,0.30
2023-02-28T04:03:45.360Z,0.30
2023-02-28T04:06:18.503Z,0.30
2023-02-28T04:08:48.141Z,0.30
2023-02-28T04:11:23.115Z,0.30
2023-02-28T04:13:51.110Z,0.30
2023-02-28T04:16:33.902Z,0.30
2023-02-28T04:19:05.960Z,0.30
2023-02-28T04:21:35.570Z,0.30
2023-02-28T04:24:05.783Z,0.30
2023-02-28T04:26:34.241Z,0.30
2023-02-28T04:29:03.143Z,0.30
2023-02-28T04:31:31.499Z,0.40
2023-02-28T04:34:00.017Z,0.40
2023-02-28T04:36:28.065Z,0.40
2023-02-28T04:38:56.316Z,0.40
2023-02-28T04:41:25.707Z,0.40
2023-02-28T04:43:54.085Z,0.40
2023-02-28T04:46:22.244Z,0.30
2023-02-28T04:48:50.283Z,0.30
2023-02-28T04:51:20.758Z,0.30
2023-02-28T04:53:49.198Z,0.30
2023-02-28T04:56:18.976Z,0.30
2023-02-28T04:58:48.882Z,0.40
2023-02-28T05:01:22.804Z,0.30
2023-02-28T05:03:51.245Z,0.30
2023-02-28T05:06:19.808Z,0.30
2023-02-28T05:08:47.852Z,0.20
2023-02-28T05:11:21.739Z,0.20
2023-02-28T05:13:51.718Z,0.30
2023-02-28T05:16:20.261Z,0.20
2023-02-28T05:18:48.440Z,0.30
2023-02-28T05:21:29.209Z,0.20
2023-02-28T05:23:58.718Z,0.20
2023-02-28T05:26:27.511Z,0.20
2023-02-28T05:28:57.142Z,0.20
2023-02-28T05:31:25.269Z,0.20
2023-02-28T05:33:53.657Z,0.20
2023-02-28T05:36:22.113Z,0.20
2023-02-28T05:38:50.858Z,0.20
2023-02-28T05:41:21.239Z,0.20
2023-02-28T05:43:49.712Z,0.20
2023-02-28T05:46:19.013Z,0.20
2023-02-28T05:48:50.221Z,0.20
2023-02-28T05:51:18.470Z,0.30
2023-02-28T05:53:46.467Z,0.20
2023-02-28T05:56:14.464Z,0.30
2023-02-28T05:58:42.555Z,0.30
2023-02-28T06:01:33.539Z,0.30
2023-02-28T06:04:01.948Z,0.30
2023-02-28T06:06:30.522Z,0.30
2023-02-28T06:08:59.168Z,0.30
2023-02-28T06:11:28.583Z,0.40
2023-02-28T06:13:57.663Z,0.40
2023-02-28T06:16:27.908Z,0.40
2023-02-28T06:18:57.164Z,0.40
2023-02-28T06:21:25.810Z,0.40
2023-02-28T06:23:53.790Z,0.40
2023-02-28T06:26:22.184Z,0.40
2023-02-28T06:28:50.612Z,0.40
2023-02-28T06:31:19.945Z,0.40
2023-02-28T06:33:49.923Z,0.40
2023-02-28T06:36:18.935Z,0.20
2023-02-28T06:38:52.318Z,0.20
2023-02-28T06:41:20.261Z,0.20
2023-02-28T06:43:48.205Z,0.10
2023-02-28T06:46:16.485Z,0.10
2023-02-28T06:48:45.614Z,0.10
2023-02-28T06:51:16.771Z,0.00
2023-02-28T06:53:44.763Z,0.00
2023-02-28T06:56:14.628Z,0.00
2023-02-28T06:58:42.982Z,0.00
2023-02-28T07:01:11.045Z,0.10
2023-02-28T07:03:39.052Z,0.20
2023-02-28T07:06:07.695Z,0.30
2023-02-28T07:08:37.429Z,0.40
2023-02-28T07:11:05.891Z,0.50
2023-02-28T07:13:33.995Z,0.60
2023-02-28T07:16:04.430Z,0.70
2023-02-28T07:18:33.238Z,1.00
2023-02-28T07:21:03.790Z,1.20
2023-02-28T07:23:31.863Z,1.50
2023-02-28T07:26:01.232Z,1.50
2023-02-28T07:28:29.706Z,1.80
2023-02-28T07:30:57.717Z,2.00
2023-02-28T07:33:25.959Z,2.00
2023-02-28T07:35:53.947Z,2.10
2023-02-28T07:38:21.970Z,2.20
2023-02-28T07:40:49.900Z,2.20
2023-02-28T07:43:19.331Z,2.30
2023-02-28T07:45:47.458Z,2.30
2023-02-28T07:48:15.405Z,2.30
2023-02-28T07:50:43.327Z,2.50
2023-02-28T07:53:11.267Z,2.70
2023-02-28T07:55:39.210Z,2.60
2023-02-28T07:58:07.186Z,2.70
2023-02-28T08:00:36.588Z,3.00
2023-02-28T08:03:04.666Z,3.00
2023-02-28T08:05:32.888Z,3.00
2023-02-28T08:08:00.824Z,3.00
2023-02-28T08:10:29.049Z,2.70
2023-02-28T08:12:56.954Z,2.90
2023-02-28T08:15:24.918Z,2.80
2023-02-28T08:17:54.251Z,2.80
2023-02-28T08:20:22.239Z,2.70
2023-02-28T08:22:50.183Z,2.50
2023-02-28T08:25:18.445Z,2.20
2023-02-28T08:27:46.480Z,2.00
2023-02-28T08:30:16.140Z,2.10
2023-02-28T08:32:44.208Z,2.00
2023-02-28T08:35:13.725Z,2.20
2023-02-28T08:37:41.647Z,2.50
2023-02-28T08:40:12.023Z,2.60
2023-02-28T08:42:39.970Z,2.60
2023-02-28T08:45:08.904Z,2.70
2023-02-28T08:47:36.866Z,2.70
2023-02-28T08:50:05.771Z,2.70
2023-02-28T08:52:36.177Z,2.90
2023-02-28T08:55:04.237Z,2.90
2023-02-28T08:57:32.258Z,2.80
2023-02-28T09:00:00.271Z,2.70
2023-02-28T09:02:28.190Z,2.70
2023-02-28T09:04:56.305Z,2.60
2023-02-28T09:07:24.401Z,2.60
2023-02-28T09:09:56.576Z,2.80
2023-02-28T09:12:25.707Z,3.00
2023-02-28T09:14:54.371Z,3.00
2023-02-28T09:17:22.696Z,3.10
2023-02-28T09:19:51.623Z,2.90
2023-02-28T09:22:19.575Z,3.00
2023-02-28T09:24:47.593Z,2.80
2023-02-28T09:27:16.899Z,2.90
2023-02-28T09:29:45.036Z,3.00
2023-02-28T09:32:13.051Z,3.00
2023-02-28T09:34:41.286Z,3.00
2023-02-28T09:37:09.563Z,2.90
2023-02-28T09:39:37.664Z,2.80
2023-02-28T09:42:08.624Z,2.90
2023-02-28T09:44:43.320Z,2.80
2023-02-28T09:47:20.680Z,2.80
2023-02-28T09:49:50.054Z,2.70
2023-02-28T09:52:20.480Z,2.60
2023-02-28T09:54:48.571Z,2.70
2023-02-28T09:57:23.478Z,2.50
2023-02-28T10:00:01.666Z,2.40
2023-02-28T10:02:51.278Z,2.40
2023-02-28T10:05:21.711Z,2.30
2023-02-28T10:08:06.084Z,2.50
2023-02-28T10:10:40.442Z,2.50
2023-02-28T10:13:17.837Z,2.70
2023-02-28T10:15:49.461Z,2.80
2023-02-28T10:18:23.166Z,3.00
2023-02-28T10:20:52.701Z,3.10
2023-02-28T10:23:25.516Z,3.20
2023-02-28T10:25:58.979Z,3.40
2023-02-28T10:28:28.536Z,3.70
2023-02-28T10:30:59.315Z,3.80
2023-02-28T10:33:31.848Z,3.70
2023-02-28T10:36:00.964Z,3.60
2023-02-28T10:38:34.135Z,3.30
2023-02-28T10:41:10.085Z,3.30
2023-02-28T10:43:39.208Z,3.00
2023-02-28T10:46:16.328Z,3.00
2023-02-28T10:48:49.012Z,3.00
2023-02-28T10:51:19.968Z,2.90
2023-02-28T10:54:01.348Z,2.80
2023-02-28T10:56:31.224Z,2.70
2023-02-28T10:59:02.262Z,2.70
2023-02-28T11:01:40.141Z,2.70
2023-02-28T11:04:20.617Z,2.70
2023-02-28T11:06:48.884Z,2.80
2023-02-28T11:09:25.375Z,2.70
2023-02-28T11:11:53.943Z,2.70
2023-02-28T11:14:24.406Z,3.00
2023-02-28T11:16:54.713Z,3.10
2023-02-28T11:19:27.208Z,3.10
2023-02-28T11:21:58.113Z,3.30
2023-02-28T11:24:29.476Z,3.30
2023-02-28T11:26:57.843Z,3.40
2023-02-28T11:29:27.970Z,3.40
2023-02-28T11:32:13.736Z,3.40
2023-02-28T11:34:43.077Z,3.30
2023-02-28T11:37:15.842Z,3.50
2023-02-28T11:39:44.481Z,3.50
2023-02-28T11:42:39.340Z,3.40
2023-02-28T11:45:26.448Z,3.40
2023-02-28T11:48:04.888Z,3.50
2023-02-28T11:50:47.475Z,3.40
2023-02-28T11:53:25.804Z,3.50
2023-02-28T11:56:00.396Z,3.50
2023-02-28T11:58:48.080Z,3.60
2023-02-28T12:01:37.147Z,3.50
2023-02-28T12:04:23.615Z,3.60
2023-02-28T12:06:59.231Z,3.50
2023-02-28T12:09:44.989Z,3.70
2023-02-28T12:12:29.512Z,3.60
2023-02-28T12:15:36.838Z,3.70
2023-02-28T12:18:34.660Z,3.80
2023-02-28T12:21:11.576Z,3.80
2023-02-28T12:23:59.327Z,3.70
2023-02-28T12:26:36.784Z,3.70
2023-02-28T12:29:12.363Z,3.80
2023-02-28T12:31:43.992Z,3.80
2023-02-28T12:34:17.371Z,3.80
2023-02-28T12:36:49.654Z,3.80
2023-02-28T12:39:24.044Z,3.90
2023-02-28T12:41:56.919Z,3.90
2023-02-28T12:44:32.967Z,3.80
2023-02-28T12:47:05.729Z,3.90
2023-02-28T12:49:38.381Z,3.90
2023-02-28T12:52:12.021Z,3.90
2023-02-28T12:54:47.613Z,3.90
2023-02-28T12:57:21.684Z,3.90
2023-02-28T12:59:53.177Z,3.90
2023-02-28T13:02:49.679Z,4.00
2023-02-28T13:05:54.232Z,4.00
2023-02-28T13:09:03.420Z,3.90
2023-02-28T13:11:35.506Z,3.90
2023-02-28T13:14:06.148Z,4.00
2023-02-28T13:17:00.990Z,4.00
2023-02-28T13:19:31.741Z,4.00
2023-02-28T13:22:00.675Z,4.10
2023-02-28T13:24:46.373Z,4.10
2023-02-28T13:27:34.054Z,4.10
2023-02-28T13:30:03.327Z,4.10
2023-02-28T13:32:39.785Z,4.10
2023-02-28T13:35:46.973Z,4.10
2023-02-28T13:38:35.717Z,4.10
2023-02-28T13:41:48.808Z,4.10
2023-02-28T13:44:19.848Z,4.00
2023-02-28T13:47:24.054Z,4.00
2023-02-28T13:49:53.773Z,4.00
2023-02-28T13:52:25.579Z,4.10
2023-02-28T13:55:17.983Z,4.10
2023-02-28T13:58:13.665Z,4.10
2023-02-28T14:01:01.889Z,4.10
2023-02-28T14:03:49.067Z,4.20
2023-02-28T14:06:25.001Z,4.10
2023-02-28T14:08:58.488Z,4.10
2023-02-28T14:11:30.417Z,4.20
2023-02-28T14:14:00.267Z,4.20
2023-02-28T14:16:31.163Z,4.10
2023-02-28T14:19:03.376Z,4.10
2023-02-28T14:21:35.208Z,4.10
2023-02-28T14:24:49.077Z,4.10
2023-02-28T14:27:31.512Z,4.10
2023-02-28T14:30:39.150Z,4.10
2023-02-28T14:33:20.368Z,4.10
2023-02-28T14:36:00.010Z,4.10
2023-02-28T14:38:32.457Z,4.20
2023-02-28T14:41:05.353Z,4.20
2023-02-28T14:43:33.399Z,4.10
2023-02-28T14:46:04.529Z,4.10
2023-02-28T14:48:32.803Z,4.00
2023-02-28T14:51:02.912Z,4.00
2023-02-28T14:53:37.154Z,4.10
2023-02-28T14:56:05.964Z,3.90
2023-02-28T14:58:36.017Z,4.00
2023-02-28T15:01:06.542Z,4.00
2023-02-28T15:03:36.447Z,4.00
2023-02-28T15:06:06.139Z,4.00
2023-02-28T15:08:37.246Z,4.00
2023-02-28T15:11:08.248Z,4.00
2023-02-28T15:13:40.678Z,3.90
2023-02-28T15:16:14.152Z,3.90
2023-02-28T15:18:49.692Z,3.90
2023-02-28T15:21:20.492Z,3.90
2023-02-28T15:23:51.907Z,3.90
2023-02-28T15:26:23.233Z,3.80
2023-02-28T15:28:53.316Z,3.80
2023-02-28T15:31:28.064Z,3.80
2023-02-28T15:33:57.482Z,3.70
2023-02-28T15:36:29.037Z,3.80
2023-02-28T15:39:01.542Z,3.80
2023-02-28T15:41:40.005Z,3.70
2023-02-28T15:44:19.166Z,3.80
2023-02-28T15:46:58.982Z,3.80
2023-02-28T15:49:27.887Z,3.70
2023-02-28T15:51:59.939Z,3.60
2023-02-28T15:54:32.548Z,3.60
2023-02-28T15:57:07.253Z,3.60
2023-02-28T15:59:35.460Z,3.70
2023-02-28T16:02:23.232Z,3.60
2023-02-28T16:04:59.161Z,3.60
2023-02-28T16:07:27.257Z,3.60
2023-02-28T16:09:55.265Z,3.60
2023-02-28T16:12:28.244Z,3.50
2023-02-28T16:14:58.008Z,3.60
2023-02-28T16:17:30.091Z,3.50
2023-02-28T16:19:58.951Z,3.50
2023-02-28T16:22:27.075Z,3.40
2023-02-28T16:24:55.039Z,3.40
2023-02-28T16:27:26.629Z,3.40
2023-02-28T16:29:55.524Z,3.30
2023-02-28T16:32:23.511Z,3.30
2023-02-28T16:34:52.894Z,3.30
2023-02-28T16:37:20.983Z,3.30
2023-02-28T16:39:50.974Z,3.20
2023-02-28T16:42:25.877Z,3.20
2023-02-28T16:44:54.855Z,3.10
2023-02-28T16:47:23.309Z,3.10
2023-02-28T16:49:52.615Z,3.00
2023-02-28T16:52:23.117Z,3.00
2023-02-28T16:54:51.062Z,2.90
2023-02-28T16:57:23.353Z,2.90
2023-02-28T16:59:52.066Z,2.80
2023-02-28T17:02:21.513Z,2.80
2023-02-28T17:04:49.936Z,2.80
2023-02-28T17:07:19.699Z,2.80
2023-02-28T17:09:47.972Z,2.70
2023-02-28T17:12:15.912Z,2.70
2023-02-28T17:14:43.928Z,2.70
2023-02-28T17:17:19.051Z,2.60
2023-02-28T17:19:47.037Z,2.60
2023-02-28T17:22:14.963Z,2.50
2023-02-28T17:24:46.315Z,2.40
2023-02-28T17:27:14.845Z,2.40
2023-02-28T17:29:42.989Z,2.40
2023-02-28T17:32:17.870Z,2.30
2023-02-28T17:34:47.080Z,2.30
2023-02-28T17:37:15.377Z,2.20
2023-02-28T17:39:44.700Z,2.20
2023-02-28T17:42:13.188Z,2.10
2023-02-28T17:44:41.125Z,2.10
2023-02-28T17:47:11.581Z,2.00
2023-02-28T17:49:39.502Z,2.00
2023-02-28T17:52:07.455Z,1.90
2023-02-28T17:54:35.376Z,1.90
2023-02-28T17:57:04.953Z,1.80
2023-02-28T17:59:34.377Z,1.80
2023-02-28T18:02:02.554Z,1.80
2023-02-28T18:04:30.549Z,1.80
2023-02-28T18:07:00.987Z,1.70
2023-02-28T18:09:29.338Z,1.60
2023-02-28T18:11:58.024Z,1.50
2023-02-28T18:14:27.579Z,1.50
2023-02-28T18:16:57.465Z,1.50
2023-02-28T18:19:25.809Z,1.50
2023-02-28T18:21:55.291Z,1.50
2023-02-28T18:24:24.917Z,1.50
2023-02-28T18:26:53.001Z,1.40
2023-02-28T18:29:22.952Z,1.30
2023-02-28T18:31:52.806Z,1.30
2023-02-28T18:34:21.354Z,1.20
2023-02-28T18:36:50.918Z,1.10
2023-02-28T18:39:19.350Z,1.10
2023-02-28T18:41:47.581Z,1.00
2023-02-28T18:44:22.721Z,1.00
2023-02-28T18:46:52.167Z,0.90
2023-02-28T18:49:20.458Z,0.90
2023-02-28T18:51:48.897Z,0.90
2023-02-28T18:54:18.060Z,1.00
2023-02-28T18:56:46.189Z,1.00
2023-02-28T18:59:14.534Z,1.00
2023-02-28T19:01:42.529Z,1.00
2023-02-28T19:04:14.721Z,1.00
2023-02-28T19:06:43.175Z,1.00
2023-02-28T19:09:11.246Z,1.00
2023-02-28T19:11:39.321Z,1.00
2023-02-28T19:14:08.090Z,1.00
2023-02-28T19:16:36.673Z,0.90
2023-02-28T19:19:05.771Z,1.00
2023-02-28T19:21:36.654Z,0.90
2023-02-28T19:24:05.882Z,0.90
2023-02-28T19:26:33.902Z,0.80
2023-02-28T19:29:04.035Z,0.80
2023-02-28T19:31:32.450Z,0.80
2023-02-28T19:34:01.391Z,0.80
2023-02-28T19:36:29.460Z,0.80
2023-02-28T19:38:58.775Z,0.70
2023-02-28T19:41:27.068Z,0.60
2023-02-28T19:43:55.455Z,0.60
2023-02-28T19:46:23.426Z,0.60
2023-02-28T19:48:54.597Z,0.60
2023-02-28T19:51:22.813Z,0.50
2023-02-28T19:53:51.010Z,0.50
2023-02-28T19:56:20.675Z,0.50
2023-02-28T19:58:48.673Z,0.40
2023-02-28T20:01:18.978Z,0.40
2023-02-28T20:03:49.542Z,0.40
2023-02-28T20:06:17.665Z,0.40
2023-02-28T20:08:46.035Z,0.40
2023-02-28T20:11:16.092Z,0.40
2023-02-28T20:13:46.085Z,0.30
2023-02-28T20:16:16.231Z,0.30
2023-02-28T20:18:45.854Z,0.20
2023-02-28T20:21:16.512Z,0.20
2023-02-28T20:23:45.575Z,0.20
2023-02-28T20:26:13.811Z,0.20
2023-02-28T20:28:42.224Z,0.20
2023-02-28T20:31:16.011Z,0.20
2023-02-28T20:33:46.786Z,0.30
2023-02-28T20:36:15.778Z,0.30
2023-02-28T20:38:44.614Z,0.30
2023-02-28T20:41:13.092Z,0.20
2023-02-28T20:43:41.458Z,0.30
2023-02-28T20:46:09.933Z,0.30
2023-02-28T20:48:39.757Z,0.30
2023-02-28T20:51:08.134Z,0.30
2023-02-28T20:53:37.128Z,0.30
2023-02-28T20:56:07.047Z,0.20
2023-02-28T20:58:38.263Z,0.20
2023-02-28T21:01:12.670Z,0.20
2023-02-28T21:03:42.276Z,0.20
2023-02-28T21:06:10.236Z,0.20
2023-02-28T21:08:39.240Z,0.20
2023-02-28T21:11:10.753Z,0.20
2023-02-28T21:13:38.995Z,0.10
2023-02-28T21:16:08.600Z,0.10
2023-02-28T21:18:37.624Z,0.10
2023-02-28T21:21:09.640Z,0.00
2023-02-28T21:23:38.228Z,0.00
2023-02-28T21:26:07.883Z,0.00
2023-02-28T21:28:36.838Z,0.00
2023-02-28T21:31:05.768Z,0.00
2023-02-28T21:33:34.079Z,0.00
2023-02-28T21:36:03.487Z,-0.10
2023-02-28T21:38:33.604Z,-0.10
2023-02-28T21:41:05.665Z,-0.10
2023-02-28T21:43:33.806Z,0.00
2023-02-28T21:46:02.787Z,0.00
2023-02-28T21:48:30.993Z,-0.10
2023-02-28T21:51:01.460Z,-0.10
2023-02-28T21:53:29.897Z,-0.10
2023-02-28T21:56:01.282Z,-0.10
2023-02-28T21:58:29.330Z,-0.10
2023-02-28T22:01:04.753Z,-0.20
2023-02-28T22:03:32.972Z,-0.30
2023-02-28T22:06:00.989Z,-0.30
2023-02-28T22:08:29.180Z,-0.30
2023-02-28T22:10:57.124Z,-0.20
2023-02-28T22:13:26.506Z,-0.20
2023-02-28T22:15:54.464Z,-0.20
2023-02-28T22:18:22.455Z,-0.20
2023-02-28T22:20:55.238Z,-0.10
2023-02-28T22:23:23.295Z,-0.10
2023-02-28T22:25:53.684Z,-0.10
2023-02-28T22:28:22.011Z,-0.10
2023-02-28T22:30:51.976Z,-0.10
2023-02-28T22:33:19.968Z,-0.10
2023-02-28T22:35:47.981Z,-0.20
2023-02-28T22:38:15.958Z,-0.20
2023-02-28T22:40:44.712Z,-0.10
2023-02-28T22:43:12.720Z,-0.10
2023-02-28T22:45:42.144Z,0.00
2023-02-28T22:48:12.063Z,0.00
2023-02-28T22:50:40.027Z,0.00
2023-02-28T22:53:07.944Z,-0.10
2023-02-28T22:55:35.892Z,-0.10
2023-02-28T22:58:03.859Z,-0.10
2023-02-28T23:00:31.846Z,-0.20
2023-02-28T23:02:59.799Z,-0.20
2023-02-28T23:05:31.648Z,-0.30
2023-02-28T23:08:01.033Z,-0.30
2023-02-28T23:10:29.008Z,-0.30
2023-02-28T23:12:56.930Z,-0.40
2023-02-28T23:15:24.981Z,-0.40
2023-02-28T23:17:52.925Z,-0.40
2023-02-28T23:20:22.071Z,-0.40
2023-02-28T23:22:51.443Z,-0.50
2023-02-28T23:25:19.968Z,-0.50
2023-02-28T23:27:48.624Z,-0.60
2023-02-28T23:30:17.477Z,-0.60
2023-02-28T23:32:45.498Z,-0.60
2023-02-28T23:35:13.496Z,-0.60
2023-02-28T23:37:41.693Z,-0.60
2023-02-28T23:40:13.259Z,-0.50
2023-02-28T23:42:41.679Z,-0.50
2023-02-28T23:45:10.956Z,-0.60
2023-02-28T23:47:38.882Z,-0.60
2023-02-28T23:50:08.189Z,-0.50
2023-02-28T23:52:36.142Z,-0.50
2023-02-28T23:55:04.392Z,-0.60
2023-02-28T23:57:35.861Z,-0.60
